sensor_id;sensor_type;location;lat;lon;timestamp;P1;durP1;ratioP1;P2;durP2;ratioP2
32393;SDS011;18853;45.426;9.206;2023-08-24T00:01:17;18.95;;;11.65;;
32393;SDS011;18853;45.426;9.206;2023-08-24T00:03:45;16.50;;;12.77;;
32393;SDS011;18853;45.426;9.206;2023-08-24T00:06:11;15.23;;;12.25;;
32393;SDS011;18853;45.426;9.206;2023-08-24T00:08:37;16.40;;;12.18;;
32393;SDS011;18853;45.426;9.206;2023-08-24T00:11:03;14.95;;;12.48;;
32393;SDS011;18853;45.426;9.206;2023-08-24T00:13:30;12.65;;;11.35;;
32393;SDS011;18853;45.426;9.206;2023-08-24T00:15:56;14.38;;;11.82;;
32393;SDS011;18853;45.426;9.206;2023-08-24T00:18:22;12.90;;;11.07;;
32393;SDS011;18853;45.426;9.206;2023-08-24T00:20:48;14.32;;;12.13;;
32393;SDS011;18853;45.426;9.206;2023-08-24T00:23:14;14.90;;;11.77;;
32393;SDS011;18853;45.426;9.206;2023-08-24T00:25:39;16.45;;;12.00;;
32393;SDS011;18853;45.426;9.206;2023-08-24T00:28:08;13.30;;;11.68;;
32393;SDS011;18853;45.426;9.206;2023-08-24T00:30:34;16.20;;;11.95;;
32393;SDS011;18853;45.426;9.206;2023-08-24T00:33:01;14.73;;;12.15;;
32393;SDS011;18853;45.426;9.206;2023-08-24T00:35:26;12.85;;;11.35;;
32393;SDS011;18853;45.426;9.206;2023-08-24T00:37:52;16.52;;;13.02;;
32393;SDS011;18853;45.426;9.206;2023-08-24T00:40:18;15.15;;;12.15;;
32393;SDS011;18853;45.426;9.206;2023-08-24T00:42:44;12.77;;;11.43;;
32393;SDS011;18853;45.426;9.206;2023-08-24T00:45:11;13.77;;;11.52;;
32393;SDS011;18853;45.426;9.206;2023-08-24T00:47:44;12.57;;;11.05;;
32393;SDS011;18853;45.426;9.206;2023-08-24T00:50:11;15.23;;;12.73;;
32393;SDS011;18853;45.426;9.206;2023-08-24T00:52:38;14.98;;;12.48;;
32393;SDS011;18853;45.426;9.206;2023-08-24T00:55:06;15.07;;;12.20;;
32393;SDS011;18853;45.426;9.206;2023-08-24T00:57:32;18.58;;;12.70;;
32393;SDS011;18853;45.426;9.206;2023-08-24T01:00:02;14.95;;;11.70;;
32393;SDS011;18853;45.426;9.206;2023-08-24T01:02:39;14.05;;;11.38;;
32393;SDS011;18853;45.426;9.206;2023-08-24T01:05:05;16.83;;;12.02;;
32393;SDS011;18853;45.426;9.206;2023-08-24T01:07:34;13.95;;;11.60;;
32393;SDS011;18853;45.426;9.206;2023-08-24T01:10:04;17.10;;;12.52;;
32393;SDS011;18853;45.426;9.206;2023-08-24T01:18:04;17.20;;;11.80;;
32393;SDS011;18853;45.426;9.206;2023-08-24T01:20:42;15.68;;;12.90;;
32393;SDS011;18853;45.426;9.206;2023-08-24T01:26:09;14.30;;;12.57;;
32393;SDS011;18853;45.426;9.206;2023-08-24T01:28:35;13.75;;;12.02;;
32393;SDS011;18853;45.426;9.206;2023-08-24T01:31:03;16.45;;;12.18;;
32393;SDS011;18853;45.426;9.206;2023-08-24T01:33:30;13.27;;;11.63;;
32393;SDS011;18853;45.426;9.206;2023-08-24T01:35:56;15.52;;;12.65;;
32393;SDS011;18853;45.426;9.206;2023-08-24T01:38:22;15.18;;;13.05;;
32393;SDS011;18853;45.426;9.206;2023-08-24T01:43:31;15.50;;;12.10;;
32393;SDS011;18853;45.426;9.206;2023-08-24T01:46:02;13.93;;;12.02;;
32393;SDS011;18853;45.426;9.206;2023-08-24T01:48:30;17.83;;;12.57;;
32393;SDS011;18853;45.426;9.206;2023-08-24T01:50:57;15.32;;;12.07;;
32393;SDS011;18853;45.426;9.206;2023-08-24T01:53:25;14.10;;;12.60;;
32393;SDS011;18853;45.426;9.206;2023-08-24T01:55:52;15.20;;;12.57;;
32393;SDS011;18853;45.426;9.206;2023-08-24T01:58:18;14.45;;;12.93;;
32393;SDS011;18853;45.426;9.206;2023-08-24T02:00:45;14.38;;;12.25;;
32393;SDS011;18853;45.426;9.206;2023-08-24T02:03:10;16.63;;;11.85;;
32393;SDS011;18853;45.426;9.206;2023-08-24T02:05:36;14.13;;;12.40;;
32393;SDS011;18853;45.426;9.206;2023-08-24T02:08:02;14.52;;;12.45;;
32393;SDS011;18853;45.426;9.206;2023-08-24T02:10:28;14.65;;;12.40;;
32393;SDS011;18853;45.426;9.206;2023-08-24T02:12:54;16.13;;;12.90;;
32393;SDS011;18853;45.426;9.206;2023-08-24T02:15:19;15.98;;;12.23;;
32393;SDS011;18853;45.426;9.206;2023-08-24T02:17:45;16.02;;;12.02;;
32393;SDS011;18853;45.426;9.206;2023-08-24T02:20:11;15.75;;;13.23;;
32393;SDS011;18853;45.426;9.206;2023-08-24T02:22:37;14.30;;;12.45;;
32393;SDS011;18853;45.426;9.206;2023-08-24T02:25:03;13.80;;;12.30;;
32393;SDS011;18853;45.426;9.206;2023-08-24T02:27:30;15.23;;;12.48;;
32393;SDS011;18853;45.426;9.206;2023-08-24T02:29:56;16.02;;;12.15;;
32393;SDS011;18853;45.426;9.206;2023-08-24T02:32:22;14.23;;;12.73;;
32393;SDS011;18853;45.426;9.206;2023-08-24T02:34:48;14.43;;;11.98;;
32393;SDS011;18853;45.426;9.206;2023-08-24T02:37:13;13.68;;;12.27;;
32393;SDS011;18853;45.426;9.206;2023-08-24T02:39:39;14.55;;;11.90;;
32393;SDS011;18853;45.426;9.206;2023-08-24T02:42:05;13.95;;;11.38;;
32393;SDS011;18853;45.426;9.206;2023-08-24T02:44:30;16.48;;;11.65;;
32393;SDS011;18853;45.426;9.206;2023-08-24T02:46:56;14.43;;;12.57;;
32393;SDS011;18853;45.426;9.206;2023-08-24T02:49:22;14.20;;;12.30;;
32393;SDS011;18853;45.426;9.206;2023-08-24T02:51:48;13.75;;;12.25;;
32393;SDS011;18853;45.426;9.206;2023-08-24T02:54:14;13.05;;;11.73;;
32393;SDS011;18853;45.426;9.206;2023-08-24T02:56:39;14.48;;;12.75;;
32393;SDS011;18853;45.426;9.206;2023-08-24T02:59:05;16.92;;;13.18;;
32393;SDS011;18853;45.426;9.206;2023-08-24T03:01:31;14.07;;;12.57;;
32393;SDS011;18853;45.426;9.206;2023-08-24T03:03:57;13.20;;;11.77;;
32393;SDS011;18853;45.426;9.206;2023-08-24T03:06:22;13.70;;;12.30;;
32393;SDS011;18853;45.426;9.206;2023-08-24T03:08:51;16.40;;;12.57;;
32393;SDS011;18853;45.426;9.206;2023-08-24T03:11:17;13.27;;;11.32;;
32393;SDS011;18853;45.426;9.206;2023-08-24T03:13:43;14.23;;;12.18;;
32393;SDS011;18853;45.426;9.206;2023-08-24T03:16:08;13.90;;;12.38;;
32393;SDS011;18853;45.426;9.206;2023-08-24T03:18:34;15.10;;;12.07;;
32393;SDS011;18853;45.426;9.206;2023-08-24T03:21:00;13.40;;;12.00;;
32393;SDS011;18853;45.426;9.206;2023-08-24T03:23:26;14.50;;;13.00;;
32393;SDS011;18853;45.426;9.206;2023-08-24T03:25:52;14.88;;;12.52;;
32393;SDS011;18853;45.426;9.206;2023-08-24T03:28:18;15.55;;;12.18;;
32393;SDS011;18853;45.426;9.206;2023-08-24T03:30:48;15.90;;;12.05;;
32393;SDS011;18853;45.426;9.206;2023-08-24T03:33:16;14.13;;;11.98;;
32393;SDS011;18853;45.426;9.206;2023-08-24T03:35:41;15.27;;;11.82;;
32393;SDS011;18853;45.426;9.206;2023-08-24T03:38:07;14.27;;;11.93;;
32393;SDS011;18853;45.426;9.206;2023-08-24T03:40:33;13.52;;;12.13;;
32393;SDS011;18853;45.426;9.206;2023-08-24T03:43:00;15.13;;;11.85;;
32393;SDS011;18853;45.426;9.206;2023-08-24T03:45:27;15.65;;;12.73;;
32393;SDS011;18853;45.426;9.206;2023-08-24T03:47:53;15.75;;;12.45;;
32393;SDS011;18853;45.426;9.206;2023-08-24T03:50:18;14.23;;;11.38;;
32393;SDS011;18853;45.426;9.206;2023-08-24T03:52:44;13.93;;;12.50;;
32393;SDS011;18853;45.426;9.206;2023-08-24T03:55:10;15.80;;;12.60;;
32393;SDS011;18853;45.426;9.206;2023-08-24T03:57:36;12.90;;;11.70;;
32393;SDS011;18853;45.426;9.206;2023-08-24T04:00:03;15.83;;;12.57;;
32393;SDS011;18853;45.426;9.206;2023-08-24T04:02:32;16.67;;;12.55;;
32393;SDS011;18853;45.426;9.206;2023-08-24T04:04:58;15.70;;;12.90;;
32393;SDS011;18853;45.426;9.206;2023-08-24T04:07:23;19.08;;;13.07;;
32393;SDS011;18853;45.426;9.206;2023-08-24T04:09:49;19.63;;;13.52;;
32393;SDS011;18853;45.426;9.206;2023-08-24T04:12:15;20.88;;;12.30;;
32393;SDS011;18853;45.426;9.206;2023-08-24T04:14:40;18.85;;;12.68;;
32393;SDS011;18853;45.426;9.206;2023-08-24T04:17:06;16.13;;;13.77;;
32393;SDS011;18853;45.426;9.206;2023-08-24T04:19:32;17.45;;;13.05;;
32393;SDS011;18853;45.426;9.206;2023-08-24T04:21:57;15.05;;;13.43;;
32393;SDS011;18853;45.426;9.206;2023-08-24T04:24:23;21.38;;;14.02;;
32393;SDS011;18853;45.426;9.206;2023-08-24T04:26:50;16.17;;;14.20;;
32393;SDS011;18853;45.426;9.206;2023-08-24T04:29:16;14.48;;;13.05;;
32393;SDS011;18853;45.426;9.206;2023-08-24T04:31:42;19.35;;;14.00;;
32393;SDS011;18853;45.426;9.206;2023-08-24T04:34:08;16.08;;;14.23;;
32393;SDS011;18853;45.426;9.206;2023-08-24T04:36:34;18.92;;;13.70;;
32393;SDS011;18853;45.426;9.206;2023-08-24T04:39:00;16.50;;;14.15;;
32393;SDS011;18853;45.426;9.206;2023-08-24T04:41:26;17.02;;;14.50;;
32393;SDS011;18853;45.426;9.206;2023-08-24T04:43:52;21.60;;;17.73;;
32393;SDS011;18853;45.426;9.206;2023-08-24T04:46:18;21.17;;;18.65;;
32393;SDS011;18853;45.426;9.206;2023-08-24T04:48:44;23.33;;;19.45;;
32393;SDS011;18853;45.426;9.206;2023-08-24T04:51:10;23.13;;;20.63;;
32393;SDS011;18853;45.426;9.206;2023-08-24T04:53:35;23.98;;;19.88;;
32393;SDS011;18853;45.426;9.206;2023-08-24T04:56:01;21.70;;;17.50;;
32393;SDS011;18853;45.426;9.206;2023-08-24T04:58:27;19.92;;;16.73;;
32393;SDS011;18853;45.426;9.206;2023-08-24T05:00:52;19.58;;;16.23;;
32393;SDS011;18853;45.426;9.206;2023-08-24T05:03:20;17.02;;;15.25;;
32393;SDS011;18853;45.426;9.206;2023-08-24T05:05:46;17.92;;;16.02;;
32393;SDS011;18853;45.426;9.206;2023-08-24T05:08:12;19.77;;;16.45;;
32393;SDS011;18853;45.426;9.206;2023-08-24T05:10:38;19.55;;;15.82;;
32393;SDS011;18853;45.426;9.206;2023-08-24T05:13:04;19.60;;;15.90;;
32393;SDS011;18853;45.426;9.206;2023-08-24T05:15:30;20.40;;;15.60;;
32393;SDS011;18853;45.426;9.206;2023-08-24T05:17:56;16.83;;;15.07;;
32393;SDS011;18853;45.426;9.206;2023-08-24T05:20:24;18.83;;;15.68;;
32393;SDS011;18853;45.426;9.206;2023-08-24T05:22:50;19.00;;;14.45;;
32393;SDS011;18853;45.426;9.206;2023-08-24T05:25:16;19.67;;;14.18;;
32393;SDS011;18853;45.426;9.206;2023-08-24T05:27:42;20.63;;;15.55;;
32393;SDS011;18853;45.426;9.206;2023-08-24T05:30:08;16.65;;;14.27;;
32393;SDS011;18853;45.426;9.206;2023-08-24T05:32:34;17.00;;;14.93;;
32393;SDS011;18853;45.426;9.206;2023-08-24T05:35:04;18.33;;;14.98;;
32393;SDS011;18853;45.426;9.206;2023-08-24T05:37:31;18.92;;;15.82;;
32393;SDS011;18853;45.426;9.206;2023-08-24T05:39:56;20.52;;;15.30;;
32393;SDS011;18853;45.426;9.206;2023-08-24T05:42:22;18.67;;;15.35;;
32393;SDS011;18853;45.426;9.206;2023-08-24T05:44:48;18.40;;;15.38;;
32393;SDS011;18853;45.426;9.206;2023-08-24T05:47:13;20.08;;;15.73;;
32393;SDS011;18853;45.426;9.206;2023-08-24T05:49:39;16.95;;;14.98;;
32393;SDS011;18853;45.426;9.206;2023-08-24T05:52:05;17.58;;;15.60;;
32393;SDS011;18853;45.426;9.206;2023-08-24T05:54:30;17.30;;;15.40;;
32393;SDS011;18853;45.426;9.206;2023-08-24T05:56:57;17.25;;;15.50;;
32393;SDS011;18853;45.426;9.206;2023-08-24T05:59:25;20.08;;;16.45;;
32393;SDS011;18853;45.426;9.206;2023-08-24T06:01:52;22.00;;;17.13;;
32393;SDS011;18853;45.426;9.206;2023-08-24T06:04:17;18.67;;;16.67;;
32393;SDS011;18853;45.426;9.206;2023-08-24T06:06:43;18.73;;;16.75;;
32393;SDS011;18853;45.426;9.206;2023-08-24T06:09:09;21.40;;;17.73;;
32393;SDS011;18853;45.426;9.206;2023-08-24T06:11:35;25.23;;;18.60;;
32393;SDS011;18853;45.426;9.206;2023-08-24T06:14:01;23.08;;;19.27;;
32393;SDS011;18853;45.426;9.206;2023-08-24T06:16:27;22.50;;;18.90;;
32393;SDS011;18853;45.426;9.206;2023-08-24T06:18:53;23.02;;;20.52;;
32393;SDS011;18853;45.426;9.206;2023-08-24T06:21:19;21.00;;;18.25;;
32393;SDS011;18853;45.426;9.206;2023-08-24T06:23:44;23.17;;;18.73;;
32393;SDS011;18853;45.426;9.206;2023-08-24T06:26:12;23.05;;;18.27;;
32393;SDS011;18853;45.426;9.206;2023-08-24T06:28:38;22.25;;;18.27;;
32393;SDS011;18853;45.426;9.206;2023-08-24T06:31:04;21.40;;;18.73;;
32393;SDS011;18853;45.426;9.206;2023-08-24T06:33:36;22.30;;;18.40;;
32393;SDS011;18853;45.426;9.206;2023-08-24T06:36:03;20.35;;;17.90;;
32393;SDS011;18853;45.426;9.206;2023-08-24T06:38:30;21.10;;;17.95;;
32393;SDS011;18853;45.426;9.206;2023-08-24T06:40:57;22.25;;;18.58;;
32393;SDS011;18853;45.426;9.206;2023-08-24T06:43:23;22.38;;;18.23;;
32393;SDS011;18853;45.426;9.206;2023-08-24T06:45:49;23.35;;;17.95;;
32393;SDS011;18853;45.426;9.206;2023-08-24T06:48:14;21.85;;;17.13;;
32393;SDS011;18853;45.426;9.206;2023-08-24T06:50:40;23.13;;;18.10;;
32393;SDS011;18853;45.426;9.206;2023-08-24T06:53:06;26.75;;;20.02;;
32393;SDS011;18853;45.426;9.206;2023-08-24T06:55:31;25.42;;;19.40;;
32393;SDS011;18853;45.426;9.206;2023-08-24T06:57:57;22.80;;;18.65;;
32393;SDS011;18853;45.426;9.206;2023-08-24T07:00:23;31.10;;;21.25;;
32393;SDS011;18853;45.426;9.206;2023-08-24T07:02:50;25.33;;;20.40;;
32393;SDS011;18853;45.426;9.206;2023-08-24T07:05:16;30.60;;;21.33;;
32393;SDS011;18853;45.426;9.206;2023-08-24T07:07:45;24.73;;;17.30;;
32393;SDS011;18853;45.426;9.206;2023-08-24T07:10:12;22.48;;;17.30;;
32393;SDS011;18853;45.426;9.206;2023-08-24T07:12:38;22.70;;;18.23;;
32393;SDS011;18853;45.426;9.206;2023-08-24T07:15:07;27.10;;;17.60;;
32393;SDS011;18853;45.426;9.206;2023-08-24T07:17:33;23.02;;;16.70;;
32393;SDS011;18853;45.426;9.206;2023-08-24T07:19:59;20.02;;;15.27;;
32393;SDS011;18853;45.426;9.206;2023-08-24T07:22:25;19.17;;;14.88;;
32393;SDS011;18853;45.426;9.206;2023-08-24T07:24:53;19.08;;;14.55;;
32393;SDS011;18853;45.426;9.206;2023-08-24T07:27:19;19.10;;;16.00;;
32393;SDS011;18853;45.426;9.206;2023-08-24T07:29:45;20.10;;;14.77;;
32393;SDS011;18853;45.426;9.206;2023-08-24T07:32:11;21.92;;;13.90;;
32393;SDS011;18853;45.426;9.206;2023-08-24T07:34:36;26.95;;;14.02;;
32393;SDS011;18853;45.426;9.206;2023-08-24T07:37:02;22.02;;;13.43;;
32393;SDS011;18853;45.426;9.206;2023-08-24T07:39:28;19.00;;;13.93;;
32393;SDS011;18853;45.426;9.206;2023-08-24T07:41:54;18.42;;;12.13;;
32393;SDS011;18853;45.426;9.206;2023-08-24T07:44:19;18.75;;;13.35;;
32393;SDS011;18853;45.426;9.206;2023-08-24T07:46:46;18.27;;;12.82;;
32393;SDS011;18853;45.426;9.206;2023-08-24T07:49:13;16.10;;;12.73;;
32393;SDS011;18853;45.426;9.206;2023-08-24T07:51:38;15.63;;;12.70;;
32393;SDS011;18853;45.426;9.206;2023-08-24T07:54:04;16.30;;;12.88;;
32393;SDS011;18853;45.426;9.206;2023-08-24T07:56:31;16.63;;;12.70;;
32393;SDS011;18853;45.426;9.206;2023-08-24T07:58:58;21.55;;;12.45;;
32393;SDS011;18853;45.426;9.206;2023-08-24T08:01:23;16.92;;;11.82;;
32393;SDS011;18853;45.426;9.206;2023-08-24T08:03:49;13.95;;;11.38;;
32393;SDS011;18853;45.426;9.206;2023-08-24T08:06:15;13.57;;;12.18;;
32393;SDS011;18853;45.426;9.206;2023-08-24T08:08:40;15.73;;;12.18;;
32393;SDS011;18853;45.426;9.206;2023-08-24T08:11:06;17.38;;;11.43;;
32393;SDS011;18853;45.426;9.206;2023-08-24T08:13:32;15.07;;;11.13;;
32393;SDS011;18853;45.426;9.206;2023-08-24T08:16:02;14.68;;;11.05;;
32393;SDS011;18853;45.426;9.206;2023-08-24T08:18:28;15.25;;;12.02;;
32393;SDS011;18853;45.426;9.206;2023-08-24T08:20:54;13.35;;;11.65;;
32393;SDS011;18853;45.426;9.206;2023-08-24T08:23:20;16.58;;;11.77;;
32393;SDS011;18853;45.426;9.206;2023-08-24T08:25:46;13.90;;;10.82;;
32393;SDS011;18853;45.426;9.206;2023-08-24T08:28:11;20.08;;;11.52;;
32393;SDS011;18853;45.426;9.206;2023-08-24T08:30:37;20.83;;;13.23;;
32393;SDS011;18853;45.426;9.206;2023-08-24T08:33:03;19.45;;;12.43;;
32393;SDS011;18853;45.426;9.206;2023-08-24T08:35:29;13.32;;;11.65;;
32393;SDS011;18853;45.426;9.206;2023-08-24T08:37:55;17.38;;;13.40;;
32393;SDS011;18853;45.426;9.206;2023-08-24T08:40:21;17.80;;;12.02;;
32393;SDS011;18853;45.426;9.206;2023-08-24T08:42:54;17.70;;;12.63;;
32393;SDS011;18853;45.426;9.206;2023-08-24T08:45:21;14.90;;;12.43;;
32393;SDS011;18853;45.426;9.206;2023-08-24T08:47:50;15.15;;;12.68;;
32393;SDS011;18853;45.426;9.206;2023-08-24T08:50:18;16.65;;;12.55;;
32393;SDS011;18853;45.426;9.206;2023-08-24T08:52:44;19.63;;;15.52;;
32393;SDS011;18853;45.426;9.206;2023-08-24T08:55:10;16.35;;;14.65;;
32393;SDS011;18853;45.426;9.206;2023-08-24T08:57:36;19.73;;;14.13;;
32393;SDS011;18853;45.426;9.206;2023-08-24T09:00:05;15.32;;;12.60;;
32393;SDS011;18853;45.426;9.206;2023-08-24T09:02:32;18.85;;;15.40;;
32393;SDS011;18853;45.426;9.206;2023-08-24T09:04:58;21.35;;;14.13;;
32393;SDS011;18853;45.426;9.206;2023-08-24T09:07:24;17.67;;;14.18;;
32393;SDS011;18853;45.426;9.206;2023-08-24T09:09:50;15.80;;;12.98;;
32393;SDS011;18853;45.426;9.206;2023-08-24T09:12:16;15.63;;;12.65;;
32393;SDS011;18853;45.426;9.206;2023-08-24T09:14:41;19.63;;;14.15;;
32393;SDS011;18853;45.426;9.206;2023-08-24T09:17:07;15.88;;;12.20;;
32393;SDS011;18853;45.426;9.206;2023-08-24T09:19:33;13.05;;;11.65;;
32393;SDS011;18853;45.426;9.206;2023-08-24T09:22:03;16.85;;;13.77;;
32393;SDS011;18853;45.426;9.206;2023-08-24T09:24:33;15.35;;;13.52;;
32393;SDS011;18853;45.426;9.206;2023-08-24T09:27:00;19.33;;;14.73;;
32393;SDS011;18853;45.426;9.206;2023-08-24T09:29:39;17.30;;;15.35;;
32393;SDS011;18853;45.426;9.206;2023-08-24T09:32:07;16.38;;;12.98;;
32393;SDS011;18853;45.426;9.206;2023-08-24T09:34:35;21.05;;;13.43;;
32393;SDS011;18853;45.426;9.206;2023-08-24T09:37:01;17.15;;;12.38;;
32393;SDS011;18853;45.426;9.206;2023-08-24T09:39:30;17.45;;;13.57;;
32393;SDS011;18853;45.426;9.206;2023-08-24T09:41:58;14.02;;;12.48;;
32393;SDS011;18853;45.426;9.206;2023-08-24T09:44:28;17.42;;;12.45;;
32393;SDS011;18853;45.426;9.206;2023-08-24T09:46:53;16.13;;;12.55;;
32393;SDS011;18853;45.426;9.206;2023-08-24T09:49:19;14.27;;;12.10;;
32393;SDS011;18853;45.426;9.206;2023-08-24T09:51:46;16.70;;;12.65;;
32393;SDS011;18853;45.426;9.206;2023-08-24T09:54:13;18.55;;;13.63;;
32393;SDS011;18853;45.426;9.206;2023-08-24T09:56:42;15.82;;;12.80;;
32393;SDS011;18853;45.426;9.206;2023-08-24T09:59:15;18.85;;;13.50;;
32393;SDS011;18853;45.426;9.206;2023-08-24T10:01:47;13.88;;;11.63;;
32393;SDS011;18853;45.426;9.206;2023-08-24T10:04:15;16.77;;;12.48;;
32393;SDS011;18853;45.426;9.206;2023-08-24T10:06:44;15.02;;;10.68;;
32393;SDS011;18853;45.426;9.206;2023-08-24T10:09:28;15.45;;;11.38;;
32393;SDS011;18853;45.426;9.206;2023-08-24T10:12:00;18.20;;;12.95;;
32393;SDS011;18853;45.426;9.206;2023-08-24T10:14:31;17.98;;;12.63;;
32393;SDS011;18853;45.426;9.206;2023-08-24T10:17:05;16.23;;;11.25;;
32393;SDS011;18853;45.426;9.206;2023-08-24T10:19:33;12.88;;;10.65;;
32393;SDS011;18853;45.426;9.206;2023-08-24T10:21:59;11.40;;;10.05;;
32393;SDS011;18853;45.426;9.206;2023-08-24T10:24:27;16.45;;;11.48;;
32393;SDS011;18853;45.426;9.206;2023-08-24T10:26:54;12.48;;;10.20;;
32393;SDS011;18853;45.426;9.206;2023-08-24T10:29:21;12.45;;;10.43;;
32393;SDS011;18853;45.426;9.206;2023-08-24T10:31:48;12.80;;;10.35;;
32393;SDS011;18853;45.426;9.206;2023-08-24T10:34:14;10.90;;;9.30;;
32393;SDS011;18853;45.426;9.206;2023-08-24T10:36:40;10.73;;;9.63;;
32393;SDS011;18853;45.426;9.206;2023-08-24T10:39:06;14.43;;;11.02;;
32393;SDS011;18853;45.426;9.206;2023-08-24T10:41:48;13.43;;;9.90;;
32393;SDS011;18853;45.426;9.206;2023-08-24T10:44:25;12.38;;;10.00;;
32393;SDS011;18853;45.426;9.206;2023-08-24T10:47:11;11.48;;;10.20;;
32393;SDS011;18853;45.426;9.206;2023-08-24T10:50:01;14.98;;;10.00;;
32393;SDS011;18853;45.426;9.206;2023-08-24T10:54:55;12.93;;;11.18;;
32393;SDS011;18853;45.426;9.206;2023-08-24T10:57:22;17.48;;;11.05;;
32393;SDS011;18853;45.426;9.206;2023-08-24T11:00:11;14.13;;;10.32;;
32393;SDS011;18853;45.426;9.206;2023-08-24T11:02:44;12.18;;;10.88;;
32393;SDS011;18853;45.426;9.206;2023-08-24T11:05:17;11.85;;;9.50;;
32393;SDS011;18853;45.426;9.206;2023-08-24T11:10:16;12.55;;;9.75;;
32393;SDS011;18853;45.426;9.206;2023-08-24T11:15:44;11.85;;;9.88;;
32393;SDS011;18853;45.426;9.206;2023-08-24T11:18:21;10.65;;;9.43;;
32393;SDS011;18853;45.426;9.206;2023-08-24T11:20:55;13.52;;;9.95;;
32393;SDS011;18853;45.426;9.206;2023-08-24T11:23:25;15.73;;;9.50;;
32393;SDS011;18853;45.426;9.206;2023-08-24T11:25:52;12.70;;;9.40;;
32393;SDS011;18853;45.426;9.206;2023-08-24T11:28:21;15.88;;;9.73;;
32393;SDS011;18853;45.426;9.206;2023-08-24T11:30:49;12.35;;;9.80;;
32393;SDS011;18853;45.426;9.206;2023-08-24T11:33:15;15.82;;;9.77;;
32393;SDS011;18853;45.426;9.206;2023-08-24T11:35:43;14.82;;;9.57;;
32393;SDS011;18853;45.426;9.206;2023-08-24T11:38:09;15.55;;;9.80;;
32393;SDS011;18853;45.426;9.206;2023-08-24T11:40:36;12.57;;;9.18;;
32393;SDS011;18853;45.426;9.206;2023-08-24T11:43:02;12.52;;;9.73;;
32393;SDS011;18853;45.426;9.206;2023-08-24T11:45:35;13.75;;;9.05;;
32393;SDS011;18853;45.426;9.206;2023-08-24T11:48:02;13.02;;;8.98;;
32393;SDS011;18853;45.426;9.206;2023-08-24T11:50:32;11.48;;;9.43;;
32393;SDS011;18853;45.426;9.206;2023-08-24T11:52:59;12.00;;;8.15;;
32393;SDS011;18853;45.426;9.206;2023-08-24T11:55:26;12.07;;;8.82;;
32393;SDS011;18853;45.426;9.206;2023-08-24T11:57:53;13.40;;;9.30;;
32393;SDS011;18853;45.426;9.206;2023-08-24T12:00:19;15.57;;;8.77;;
32393;SDS011;18853;45.426;9.206;2023-08-24T12:02:46;15.77;;;9.27;;
32393;SDS011;18853;45.426;9.206;2023-08-24T12:05:22;11.27;;;8.38;;
32393;SDS011;18853;45.426;9.206;2023-08-24T12:07:48;10.43;;;8.38;;
32393;SDS011;18853;45.426;9.206;2023-08-24T12:10:15;11.45;;;7.75;;
32393;SDS011;18853;45.426;9.206;2023-08-24T12:12:41;14.68;;;8.60;;
32393;SDS011;18853;45.426;9.206;2023-08-24T12:15:07;12.32;;;8.10;;
32393;SDS011;18853;45.426;9.206;2023-08-24T12:17:43;12.63;;;8.20;;
32393;SDS011;18853;45.426;9.206;2023-08-24T12:20:16;12.65;;;7.65;;
32393;SDS011;18853;45.426;9.206;2023-08-24T12:22:43;8.17;;;7.20;;
32393;SDS011;18853;45.426;9.206;2023-08-24T12:25:09;12.85;;;7.47;;
32393;SDS011;18853;45.426;9.206;2023-08-24T12:27:35;8.68;;;6.75;;
32393;SDS011;18853;45.426;9.206;2023-08-24T12:30:01;10.00;;;8.00;;
32393;SDS011;18853;45.426;9.206;2023-08-24T12:32:31;9.40;;;7.38;;
32393;SDS011;18853;45.426;9.206;2023-08-24T12:35:10;7.95;;;7.15;;
32393;SDS011;18853;45.426;9.206;2023-08-24T12:37:36;11.38;;;7.25;;
32393;SDS011;18853;45.426;9.206;2023-08-24T12:40:03;11.02;;;7.00;;
32393;SDS011;18853;45.426;9.206;2023-08-24T12:42:32;9.73;;;6.80;;
32393;SDS011;18853;45.426;9.206;2023-08-24T12:44:58;9.07;;;6.78;;
32393;SDS011;18853;45.426;9.206;2023-08-24T12:47:24;8.43;;;6.95;;
32393;SDS011;18853;45.426;9.206;2023-08-24T12:49:49;11.02;;;6.70;;
32393;SDS011;18853;45.426;9.206;2023-08-24T12:52:19;9.57;;;6.90;;
32393;SDS011;18853;45.426;9.206;2023-08-24T12:54:45;12.18;;;7.07;;
32393;SDS011;18853;45.426;9.206;2023-08-24T12:57:11;10.90;;;6.47;;
32393;SDS011;18853;45.426;9.206;2023-08-24T12:59:36;8.20;;;6.55;;
32393;SDS011;18853;45.426;9.206;2023-08-24T13:02:02;9.93;;;6.43;;
32393;SDS011;18853;45.426;9.206;2023-08-24T13:04:29;8.75;;;6.10;;
32393;SDS011;18853;45.426;9.206;2023-08-24T13:06:57;13.50;;;6.45;;
32393;SDS011;18853;45.426;9.206;2023-08-24T13:09:23;8.05;;;6.10;;
32393;SDS011;18853;45.426;9.206;2023-08-24T13:11:48;7.00;;;5.95;;
32393;SDS011;18853;45.426;9.206;2023-08-24T13:14:14;8.93;;;6.63;;
32393;SDS011;18853;45.426;9.206;2023-08-24T13:16:40;8.13;;;6.35;;
32393;SDS011;18853;45.426;9.206;2023-08-24T13:19:06;8.65;;;6.00;;
32393;SDS011;18853;45.426;9.206;2023-08-24T13:21:32;9.10;;;6.28;;
32393;SDS011;18853;45.426;9.206;2023-08-24T13:23:58;9.10;;;6.40;;
32393;SDS011;18853;45.426;9.206;2023-08-24T13:26:24;8.80;;;6.38;;
32393;SDS011;18853;45.426;9.206;2023-08-24T13:28:50;10.55;;;6.13;;
32393;SDS011;18853;45.426;9.206;2023-08-24T13:31:16;7.90;;;6.38;;
32393;SDS011;18853;45.426;9.206;2023-08-24T13:33:42;10.52;;;6.32;;
32393;SDS011;18853;45.426;9.206;2023-08-24T13:36:07;8.82;;;6.22;;
32393;SDS011;18853;45.426;9.206;2023-08-24T13:38:33;10.75;;;6.38;;
32393;SDS011;18853;45.426;9.206;2023-08-24T13:40:58;9.38;;;5.95;;
32393;SDS011;18853;45.426;9.206;2023-08-24T13:43:24;8.85;;;6.40;;
32393;SDS011;18853;45.426;9.206;2023-08-24T13:45:50;8.60;;;5.75;;
32393;SDS011;18853;45.426;9.206;2023-08-24T13:48:16;9.98;;;6.55;;
32393;SDS011;18853;45.426;9.206;2023-08-24T13:50:48;13.75;;;6.57;;
32393;SDS011;18853;45.426;9.206;2023-08-24T13:53:17;9.95;;;6.75;;
32393;SDS011;18853;45.426;9.206;2023-08-24T13:55:43;8.30;;;6.07;;
32393;SDS011;18853;45.426;9.206;2023-08-24T13:58:09;9.30;;;6.00;;
32393;SDS011;18853;45.426;9.206;2023-08-24T14:00:34;11.05;;;6.22;;
32393;SDS011;18853;45.426;9.206;2023-08-24T14:03:00;9.90;;;6.03;;
32393;SDS011;18853;45.426;9.206;2023-08-24T14:05:26;9.68;;;5.82;;
32393;SDS011;18853;45.426;9.206;2023-08-24T14:07:52;9.73;;;6.18;;
32393;SDS011;18853;45.426;9.206;2023-08-24T14:10:17;12.00;;;6.78;;
32393;SDS011;18853;45.426;9.206;2023-08-24T14:12:43;12.32;;;6.40;;
32393;SDS011;18853;45.426;9.206;2023-08-24T14:15:11;11.27;;;6.30;;
32393;SDS011;18853;45.426;9.206;2023-08-24T14:17:36;10.60;;;6.20;;
32393;SDS011;18853;45.426;9.206;2023-08-24T14:20:02;11.93;;;6.18;;
32393;SDS011;18853;45.426;9.206;2023-08-24T14:22:29;9.57;;;6.00;;
32393;SDS011;18853;45.426;9.206;2023-08-24T14:24:55;9.68;;;5.93;;
32393;SDS011;18853;45.426;9.206;2023-08-24T14:27:20;9.25;;;6.50;;
32393;SDS011;18853;45.426;9.206;2023-08-24T14:29:46;10.70;;;6.25;;
32393;SDS011;18853;45.426;9.206;2023-08-24T14:32:12;10.02;;;6.25;;
32393;SDS011;18853;45.426;9.206;2023-08-24T14:34:37;6.82;;;6.13;;
32393;SDS011;18853;45.426;9.206;2023-08-24T14:37:03;7.80;;;6.25;;
32393;SDS011;18853;45.426;9.206;2023-08-24T14:39:29;7.25;;;6.32;;
32393;SDS011;18853;45.426;9.206;2023-08-24T14:41:55;9.43;;;6.45;;
32393;SDS011;18853;45.426;9.206;2023-08-24T14:44:20;9.18;;;6.93;;